Time;durP1;ratioP1;P1;durP2;ratioP2;P2;SDS_P1;SDS_P2;PMS_P1;PMS_P2;Temp;Humidity;BMP_temperature;BMP_pressure;BME280_temperature;BME280_humidity;BME280_pressure;Samples;Min_cycle;Max_cycle;Signal;HPM_P1;HPM_P2
2022/09/22 00:00:35;;;;;;;19.48;9.85;;;;;;;10.20;88.73;102315.25;5041489;28;20052;-72
2022/09/22 00:03:00;;;;;;;17.90;8.70;;;;;;;9.99;89.21;102307.84;5039371;28;20028;-72
2022/09/22 00:05:25;;;;;;;19.45;9.90;;;;;;;9.91;91.20;102314.81;5039612;28;20025;-72
2022/09/22 00:07:52;;;;;;;16.48;9.10;;;;;;;10.05;90.82;102306.50;5031414;28;20022;-72
2022/09/22 00:10:20;;;;;;;19.05;10.35;;;;;;;10.09;90.18;102307.13;5034690;28;20013;-73
2022/09/22 00:12:49;;;;;;;21.45;9.55;;;;;;;9.31;94.73;102311.25;5040174;28;20029;-72
2022/09/22 00:15:16;;;;;;;17.73;9.18;;;;;;;9.56;94.12;102317.53;5036075;28;20112;-72
2022/09/22 00:17:42;;;;;;;15.55;8.43;;;;;;;9.89;92.38;102312.22;5035067;28;20021;-72
2022/09/22 00:20:08;;;;;;;15.02;9.52;;;;;;;10.06;91.53;102303.69;5035435;28;20032;-73
2022/09/22 00:22:33;;;;;;;15.73;8.07;;;;;;;10.16;90.96;102308.34;5041023;28;20014;-72
2022/09/22 00:24:59;;;;;;;16.33;8.88;;;;;;;10.07;90.78;102309.94;5039542;28;20044;-72
2022/09/22 00:27:24;;;;;;;23.98;8.77;;;;;;;10.13;89.88;102308.59;5037047;28;20022;-72
2022/09/22 00:29:50;;;;;;;15.00;8.23;;;;;;;10.14;89.77;102313.03;5041876;28;20031;-72
2022/09/22 00:32:17;;;;;;;14.57;7.80;;;;;;;10.16;88.99;102311.91;5035822;28;20029;-72
2022/09/22 00:34:43;;;;;;;17.17;8.40;;;;;;;10.10;89.00;102308.84;5040811;28;20025;-73
2022/09/22 00:37:08;;;;;;;16.77;8.90;;;;;;;10.06;88.91;102297.41;5039301;28;20052;-72
2022/09/22 00:39:34;;;;;;;17.27;8.80;;;;;;;10.01;88.70;102295.03;5044159;28;20025;-72
2022/09/22 00:41:59;;;;;;;21.55;8.02;;;;;;;9.87;89.02;102295.25;5043625;28;20020;-72
2022/09/22 00:44:30;;;;;;;18.05;9.32;;;;;;;9.88;89.16;102307.81;5036703;28;20139;-72
2022/09/22 00:47:35;;;;;;;21.00;9.18;;;;;;;9.63;90.84;102294.44;5038863;28;20108;-72
2022/09/22 00:50:12;;;;;;;17.60;8.98;;;;;;;9.76;89.94;102300.63;4972731;28;20057;-72
2022/09/22 00:52:59;;;;;;;23.02;8.82;;;;;;;9.74;89.10;102297.19;5033897;28;20036;-72
2022/09/22 00:55:32;;;;;;;18.13;8.68;;;;;;;9.68;89.26;102297.66;5030078;28;20021;-72
2022/09/22 00:58:00;;;;;;;16.38;9.18;;;;;;;9.56;89.67;102298.59;5042665;28;20028;-72
2022/09/22 01:00:25;;;;;;;15.70;8.65;;;;;;;9.52;90.05;102293.44;5040407;28;20021;-72
2022/09/22 01:02:55;;;;;;;14.82;8.75;;;;;;;9.56;89.78;102304.00;5039064;28;20389;-72
2022/09/22 01:05:23;;;;;;;18.15;8.43;;;;;;;9.56;89.34;102287.78;5036533;28;20100;-72
2022/09/22 01:07:49;;;;;;;15.85;8.57;;;;;;;9.48;89.46;102286.53;5035386;28;20021;-72
2022/09/22 01:10:16;;;;;;;16.92;9.00;;;;;;;9.42;89.82;102292.38;5035407;28;20465;-72
2022/09/22 01:12:54;;;;;;;16.40;7.82;;;;;;;9.38;89.50;102290.88;5039805;28;20017;-72
2022/09/22 01:15:36;;;;;;;11.93;7.38;;;;;;;9.38;89.37;102290.88;5030812;28;20067;-72
2022/09/22 01:18:17;;;;;;;12.70;7.68;;;;;;;9.32;89.33;102285.94;5031960;28;20025;-72
2022/09/22 01:20:45;;;;;;;17.50;7.88;;;;;;;9.30;89.10;102278.94;5036850;28;20047;-72
2022/09/22 01:23:25;;;;;;;13.63;7.55;;;;;;;9.31;88.65;102277.94;5038005;28;20025;-72
2022/09/22 01:26:24;;;;;;;12.70;7.07;;;;;;;9.27;88.89;102274.63;5035107;28;20025;-73
2022/09/22 01:29:07;;;;;;;22.33;8.73;;;;;;;9.24;89.26;102272.16;5038743;28;20109;-72
2022/09/22 01:31:54;;;;;;;18.20;7.95;;;;;;;9.15;89.10;102267.44;5041562;28;20040;-72
2022/09/22 01:34:34;;;;;;;12.57;7.80;;;;;;;9.10;89.04;102275.03;5035815;28;20116;-72
2022/09/22 01:37:10;;;;;;;11.68;7.20;;;;;;;9.00;88.98;102268.56;5037366;28;20461;-72
2022/09/22 01:39:44;;;;;;;15.80;7.95;;;;;;;9.00;89.41;102263.16;5034234;28;20074;-72
2022/09/22 01:42:15;;;;;;;13.98;7.57;;;;;;;8.91;89.18;102259.31;5034509;28;20081;-72
2022/09/22 01:44:53;;;;;;;16.13;9.05;;;;;;;8.90;89.73;102263.84;5039755;28;20049;-72
2022/09/22 01:47:25;;;;;;;13.18;7.35;;;;;;;8.87;90.16;102258.69;5037321;28;20482;-72
2022/09/22 01:50:06;;;;;;;;;;;;;;;8.80;90.34;102262.81;5036156;28;20108;-72
2022/09/22 01:52:35;;;;;;;17.52;7.72;;;;;;;8.82;90.14;102255.47;5034148;28;19920;-72
2022/09/22 01:55:07;;;;;;;14.50;7.88;;;;;;;8.77;89.82;102257.63;5037494;28;20021;-72
2022/09/22 01:57:57;;;;;;;13.30;7.20;;;;;;;8.73;90.17;102256.13;5036245;28;20029;-72
2022/09/22 02:00:23;;;;;;;14.55;7.90;;;;;;;8.80;90.28;102260.13;5040407;28;20017;-72
2022/09/22 02:03:04;;;;;;;15.15;8.13;;;;;;;8.74;89.86;102252.47;5038569;28;20013;-72
2022/09/22 02:05:37;;;;;;;14.75;8.43;;;;;;;8.50;90.76;102265.06;5035825;28;20033;-72
2022/09/22 02:08:09;;;;;;;15.10;8.82;;;;;;;8.49;91.53;102257.94;5034851;28;20108;-72
2022/09/22 02:10:37;;;;;;;;;;;;;;;8.55;92.04;102255.66;5038808;28;20461;-72
2022/09/22 02:13:02;;;;;;;14.02;7.53;;;;;;;8.47;92.10;102247.22;5039040;28;19919;-72
2022/09/22 02:18:19;;;;;;;16.88;8.25;;;;;;;8.42;92.24;102247.56;5034668;28;20028;-72
2022/09/22 02:20:44;;;;;;;16.60;10.10;;;;;;;8.47;92.51;102249.91;5040885;28;20033;-72
2022/09/22 02:23:10;;;;;;;14.25;7.45;;;;;;;8.52;92.73;102246.91;5035004;28;20028;-72
2022/09/22 02:25:37;;;;;;;16.02;6.57;;;;;;;8.56;92.33;102248.41;5040077;28;20029;-72
2022/09/22 02:28:05;;;;;;;17.10;7.65;;;;;;;8.53;92.19;102243.22;5044747;28;20040;-72
2022/09/22 02:30:31;;;;;;;14.45;7.05;;;;;;;8.60;92.67;102255.28;5041296;28;20013;-72
2022/09/22 02:32:57;;;;;;;17.48;6.88;;;;;;;8.47;92.03;102254.47;5043200;28;20017;-72
2022/09/22 02:35:28;;;;;;;11.70;6.95;;;;;;;8.43;93.35;102254.69;5041700;28;20021;-70
2022/09/22 02:37:53;;;;;;;11.70;6.25;;;;;;;8.43;91.86;102260.09;5038465;28;20036;-70
2022/09/22 02:40:29;;;;;;;11.63;6.13;;;;;;;8.30;91.84;102251.13;5038923;28;20486;-71
2022/09/22 02:43:12;;;;;;;15.48;6.85;;;;;;;8.19;92.87;102250.16;5041833;28;20028;-70
2022/09/22 02:46:01;;;;;;;15.20;7.10;;;;;;;7.93;96.09;102252.00;5039091;28;20021;-71
2022/09/22 02:48:34;;;;;;;14.50;7.72;;;;;;;7.95;96.44;102250.03;5029995;28;20047;-70
2022/09/22 02:51:00;;;;;;;14.15;7.55;;;;;;;8.01;96.71;102246.91;5037852;28;20021;-70
2022/09/22 02:53:25;;;;;;;14.52;7.82;;;;;;;7.99;97.17;102252.41;5033869;28;20151;-70
2022/09/22 02:55:51;;;;;;;15.20;7.35;;;;;;;8.25;95.86;102247.88;5037985;28;20509;-70
2022/09/22 02:58:16;;;;;;;12.02;7.05;;;;;;;8.30;94.82;102243.03;5036540;28;20048;-68
2022/09/22 03:00:42;;;;;;;17.02;6.72;;;;;;;8.31;94.44;102238.47;5040863;28;20021;-70
2022/09/22 03:03:10;;;;;;;13.60;8.55;;;;;;;8.25;94.22;102244.31;5038707;28;20486;-70
2022/09/22 03:05:36;;;;;;;13.73;8.20;;;;;;;8.22;95.02;102245.41;5032133;28;20029;-70
2022/09/22 03:08:01;;;;;;;14.38;6.95;;;;;;;8.38;93.58;102240.66;5037010;28;20017;-71
2022/09/22 03:10:27;;;;;;;11.07;6.55;;;;;;;8.41;92.78;102239.56;5036145;28;20070;-70
2022/09/22 03:12:53;;;;;;;13.93;7.15;;;;;;;8.36;92.78;102231.81;5038809;28;20112;-71
2022/09/22 03:15:18;;;;;;;12.48;6.93;;;;;;;8.32;91.89;102235.66;5038671;28;20026;-70
2022/09/22 03:17:45;;;;;;;17.00;6.18;;;;;;;8.27;91.42;102227.03;5036864;28;20025;-70
2022/09/22 03:20:12;;;;;;;11.13;5.97;;;;;;;8.19;91.23;102234.81;5041426;28;20056;-70
2022/09/22 03:22:38;;;;;;;19.30;6.28;;;;;;;8.15;91.13;102236.03;5037404;28;20047;-70
2022/09/22 03:25:05;;;;;;;14.38;6.75;;;;;;;8.19;90.68;102233.97;5036969;28;20029;-70
2022/09/22 03:27:30;;;;;;;9.80;6.30;;;;;;;8.16;90.57;102226.97;5038281;28;20017;-71
2022/09/22 03:29:56;;;;;;;11.98;6.18;;;;;;;8.07;90.54;102230.28;5034261;28;20083;-70
2022/09/22 03:32:21;;;;;;;13.40;6.30;;;;;;;8.08;90.90;102232.00;5041556;28;20026;-70
2022/09/22 03:34:47;;;;;;;12.55;5.85;;;;;;;8.08;91.10;102223.91;5038337;28;20033;-70
2022/09/22 03:37:14;;;;;;;15.50;6.32;;;;;;;8.10;90.76;102236.34;5038603;28;20096;-70
2022/09/22 03:39:39;;;;;;;13.15;6.38;;;;;;;8.12;90.93;102222.75;5045112;28;20025;-70
2022/09/22 03:42:04;;;;;;;10.00;5.97;;;;;;;8.10;90.74;102228.25;5033311;28;20104;-70
2022/09/22 03:44:30;;;;;;;10.02;5.95;;;;;;;8.02;90.68;102227.06;5041856;28;20032;-71
2022/09/22 03:46:56;;;;;;;10.38;5.80;;;;;;;7.96;90.78;102227.50;5037852;28;20028;-70
2022/09/22 03:49:21;;;;;;;11.52;5.93;;;;;;;7.91;90.98;102226.97;5037390;28;20045;-70
2022/09/22 03:51:46;;;;;;;9.73;6.18;;;;;;;7.85;91.27;102221.03;5041554;28;20029;-70
2022/09/22 03:54:11;;;;;;;10.73;5.00;;;;;;;7.79;91.18;102216.06;5034315;28;20041;-70
2022/09/22 03:56:37;;;;;;;9.15;6.00;;;;;;;7.74;91.63;102223.59;5039675;28;20037;-70
2022/09/22 03:59:03;;;;;;;9.05;5.50;;;;;;;7.74;91.25;102212.81;5029829;28;20040;-70
2022/09/22 04:01:28;;;;;;;16.08;7.10;;;;;;;7.78;90.87;102219.72;5035934;28;20052;-70
2022/09/22 04:03:54;;;;;;;15.77;5.90;;;;;;;7.66;91.01;102209.81;5042313;28;20082;-71
2022/09/22 04:06:20;;;;;;;11.73;5.97;;;;;;;7.77;91.39;102212.63;5030217;28;20143;-70
2022/09/22 04:08:45;;;;;;;12.55;6.30;;;;;;;7.77;91.01;102212.63;5034103;28;20464;-70
2022/09/22 04:11:11;;;;;;;11.77;6.20;;;;;;;7.73;90.88;102216.50;5036786;28;20056;-71
2022/09/22 04:13:36;;;;;;;12.18;6.60;;;;;;;7.77;90.96;102207.22;5036338;28;20056;-70
2022/09/22 04:16:03;;;;;;;9.75;5.53;;;;;;;7.76;90.76;102227.06;5040335;28;20079;-70
2022/09/22 04:18:28;;;;;;;12.25;6.68;;;;;;;7.69;90.91;102214.97;5034659;28;20040;-71
2022/09/22 04:20:56;;;;;;;13.88;6.30;;;;;;;7.60;91.23;102215.63;5037805;28;20039;-70
2022/09/22 04:23:23;;;;;;;8.85;5.85;;;;;;;7.56;91.44;102204.19;5038497;28;20100;-71
2022/09/22 04:25:48;;;;;;;11.80;6.68;;;;;;;7.59;91.54;102203.97;5034476;28;20493;-71
2022/09/22 04:28:13;;;;;;;13.27;7.60;;;;;;;7.57;91.08;102199.66;5045199;28;20018;-70
2022/09/22 04:30:39;;;;;;;11.27;6.10;;;;;;;7.54;91.35;102199.88;5036818;28;20071;-70
2022/09/22 04:33:04;;;;;;;10.38;6.88;;;;;;;7.53;92.22;102203.53;5034639;28;20029;-71
2022/09/22 04:35:30;;;;;;;14.30;6.82;;;;;;;7.51;92.08;102200.09;5037746;28;20080;-69
2022/09/22 04:37:56;;;;;;;10.57;5.35;;;;;;;7.44;91.81;102204.19;5032279;28;20096;-69
2022/09/22 04:40:23;;;;;;;9.32;5.50;;;;;;;7.38;92.61;102199.22;5039882;28;20441;-70
2022/09/22 04:42:48;;;;;;;9.20;5.93;;;;;;;7.30;91.91;102208.69;5037984;28;20025;-70
2022/09/22 04:45:15;;;;;;;15.02;6.65;;;;;;;7.30;92.81;102202.41;5034913;28;20393;-70
2022/09/22 04:47:44;;;;;;;11.18;6.07;;;;;;;7.39;92.37;102206.31;5038545;28;20060;-70
2022/09/22 04:50:10;;;;;;;16.50;7.57;;;;;;;7.48;91.94;102202.97;5031266;28;20148;-70
2022/09/22 04:52:35;;;;;;;13.02;6.15;;;;;;;7.46;91.76;102207.63;5038043;28;20049;-70
2022/09/22 04:55:01;;;;;;;13.68;6.95;;;;;;;7.44;91.47;102209.56;5036985;28;20063;-70
2022/09/22 04:57:26;;;;;;;12.75;6.72;;;;;;;7.48;91.07;102205.69;5034740;28;20022;-71
2022/09/22 04:59:52;;;;;;;18.67;7.75;;;;;;;7.51;90.89;102197.41;5038810;28;20059;-70
2022/09/22 05:02:17;;;;;;;13.82;6.95;;;;;;;7.49;90.76;102197.47;5033418;28;20028;-70
2022/09/22 05:04:43;;;;;;;10.85;5.82;;;;;;;7.48;90.79;102197.59;5038310;28;20029;-70
2022/09/22 05:07:08;;;;;;;12.27;6.00;;;;;;;7.48;90.61;102201.16;5030074;28;20025;-70
2022/09/22 05:09:34;;;;;;;13.38;6.18;;;;;;;7.49;90.96;102196.63;5034365;28;20028;-70
2022/09/22 05:12:00;;;;;;;16.27;6.82;;;;;;;7.49;90.85;102196.63;5040194;28;20025;-70
2022/09/22 05:14:26;;;;;;;14.25;6.13;;;;;;;7.47;90.85;102203.94;5033130;28;20111;-70
2022/09/22 05:16:51;;;;;;;12.48;6.88;;;;;;;7.49;90.69;102202.00;5036503;28;20018;-71
2022/09/22 05:19:17;;;;;;;11.85;7.10;;;;;;;7.48;90.94;102200.28;5036053;28;20086;-70
2022/09/22 05:21:42;;;;;;;14.85;7.72;;;;;;;7.43;91.32;102213.22;5034521;28;20030;-71
2022/09/22 05:24:08;;;;;;;16.38;6.97;;;;;;;7.35;91.44;102213.72;5041334;28;20038;-70
2022/09/22 05:26:33;;;;;;;14.13;6.82;;;;;;;7.39;91.41;102211.72;5034166;28;20032;-69
2022/09/22 05:28:59;;;;;;;9.73;6.32;;;;;;;7.37;90.91;102210.94;5032957;28;20045;-69
2022/09/22 05:31:24;;;;;;;20.15;7.05;;;;;;;7.37;91.29;102210.94;5036083;28;20026;-69
2022/09/22 05:33:50;;;;;;;20.90;7.18;;;;;;;7.42;91.27;102211.47;5029524;28;20022;-69
2022/09/22 05:36:15;;;;;;;15.48;7.07;;;;;;;7.47;90.93;102220.13;5032136;28;20045;-69
2022/09/22 05:38:41;;;;;;;14.57;6.93;;;;;;;7.49;90.77;102218.19;5036168;28;20040;-70
2022/09/22 05:41:07;;;;;;;16.25;7.18;;;;;;;7.41;91.34;102221.41;5033812;28;20090;-70
2022/09/22 05:43:32;;;;;;;13.48;7.45;;;;;;;7.24;92.51;102217.19;5039687;28;20029;-70
2022/09/22 05:45:57;;;;;;;25.35;7.47;;;;;;;7.34;92.67;102223.66;5032206;28;20079;-70
2022/09/22 05:48:23;;;;;;;16.08;8.10;;;;;;;7.49;92.26;102213.66;5039240;28;20056;-70
2022/09/22 05:50:48;;;;;;;28.13;6.50;;;;;;;7.51;91.59;102216.25;5035530;28;20033;-70
2022/09/22 05:53:14;;;;;;;18.08;6.75;;;;;;;7.59;91.86;102213.91;5034475;28;20136;-70
2022/09/22 05:55:40;;;;;;;14.02;6.45;;;;;;;7.69;91.60;102220.34;5038072;28;20080;-70
2022/09/22 05:58:08;;;;;;;21.45;6.40;;;;;;;7.77;91.38;102222.53;5034326;28;20021;-70
2022/09/22 06:00:33;;;;;;;15.52;6.45;;;;;;;7.82;91.21;102225.75;5042577;28;20064;-71
2022/09/22 06:02:59;;;;;;;15.35;6.60;;;;;;;7.85;91.02;102220.16;5040602;28;20108;-71
2022/09/22 06:05:24;;;;;;;15.35;6.63;;;;;;;7.86;91.35;102209.25;5037513;28;20128;-70
2022/09/22 06:07:58;;;;;;;14.50;6.10;;;;;;;7.89;91.82;102222.56;5031533;28;20126;-69
2022/09/22 06:10:24;;;;;;;15.00;6.68;;;;;;;8.02;92.43;102216.25;5034277;28;20029;-69
2022/09/22 06:12:49;;;;;;;16.85;7.03;;;;;;;8.08;92.25;102221.22;5035266;28;20071;-70
2022/09/22 06:15:14;;;;;;;13.75;5.93;;;;;;;8.21;92.29;102213.97;5029764;28;20036;-71
2022/09/22 06:17:40;;;;;;;24.05;6.93;;;;;;;8.26;92.26;102211.81;5030217;28;20075;-70
2022/09/22 06:20:07;;;;;;;18.38;6.32;;;;;;;8.18;93.10;102211.50;5035978;28;20029;-70
2022/09/22 06:22:34;;;;;;;15.00;5.95;;;;;;;8.32;92.91;102211.38;5037394;28;20017;-70
2022/09/22 06:25:00;;;;;;;17.40;5.72;;;;;;;8.47;93.26;102216.66;5035343;28;20033;-70
2022/09/22 06:27:26;;;;;;;13.90;6.22;;;;;;;8.49;93.61;102220.13;5037662;28;20025;-70
2022/09/22 06:29:51;;;;;;;14.32;6.65;;;;;;;8.55;94.18;102227.78;5034115;28;20103;-70
2022/09/22 06:32:17;;;;;;;14.20;5.85;;;;;;;8.60;94.33;102223.75;5041721;28;20029;-70
2022/09/22 06:34:44;;;;;;;18.27;6.53;;;;;;;8.78;94.34;102226.94;5040941;28;20028;-71
2022/09/22 06:37:09;;;;;;;22.55;7.72;;;;;;;8.74;94.50;102220.06;5035299;28;20025;-70
2022/09/22 06:39:36;;;;;;;13.55;6.20;;;;;;;8.74;94.75;102225.47;5035393;28;20099;-71
2022/09/22 06:42:02;;;;;;;18.23;6.25;;;;;;;8.86;94.81;102219.13;5025803;28;20056;-71
2022/09/22 06:44:30;;;;;;;17.88;6.65;;;;;;;8.97;94.86;102226.44;5038804;28;20021;-71
2022/09/22 06:46:55;;;;;;;18.88;6.65;;;;;;;9.08;94.68;102233.75;5040209;28;20063;-72
2022/09/22 06:49:21;;;;;;;15.55;6.03;;;;;;;9.09;93.71;102224.66;5036315;28;20048;-72
2022/09/22 06:51:48;;;;;;;19.92;9.55;;;;;;;9.19;94.47;102228.38;5042853;28;20040;-72
2022/09/22 06:54:14;;;;;;;15.55;7.05;;;;;;;9.30;93.91;102225.75;5029131;28;20076;-72
2022/09/22 06:56:42;;;;;;;20.08;6.90;;;;;;;9.38;93.03;102226.00;5018060;28;20044;-72
2022/09/22 06:59:12;;;;;;;12.57;6.50;;;;;;;9.60;91.84;102225.22;5025002;28;20036;-71
2022/09/22 07:01:40;;;;;;;21.35;5.93;;;;;;;9.49;91.30;102226.06;5031013;28;20541;-72
2022/09/22 07:04:06;;;;;;;10.18;6.38;;;;;;;9.61;92.55;102236.91;5022811;28;20103;-70
2022/09/22 07:06:32;;;;;;;13.85;6.30;;;;;;;9.77;91.74;102237.44;5025082;28;20040;-70
2022/09/22 07:08:57;;;;;;;13.32;7.63;;;;;;;9.81;92.14;102235.38;5031462;28;20033;-70
2022/09/22 07:11:23;;;;;;;27.05;8.02;;;;;;;9.91;92.06;102234.53;5027719;28;20049;-70
2022/09/22 07:13:53;;;;;;;14.10;7.13;;;;;;;9.92;91.98;102236.25;5034086;28;20078;-71
2022/09/22 07:16:22;;;;;;;17.35;8.65;;;;;;;10.02;92.19;102239.94;5034601;28;20037;-71
2022/09/22 07:18:50;;;;;;;17.83;7.82;;;;;;;10.14;91.51;102229.13;5039698;28;20059;-70
2022/09/22 07:21:21;;;;;;;20.77;9.55;;;;;;;10.30;90.73;102230.53;5033932;28;20025;-71
2022/09/22 07:23:51;;;;;;;14.52;8.40;;;;;;;10.62;90.85;102245.13;5036409;28;20064;-71
2022/09/22 07:26:20;;;;;;;12.65;8.15;;;;;;;10.47;90.15;102237.28;5042293;28;20425;-71
2022/09/22 07:28:49;;;;;;;25.40;9.43;;;;;;;10.43;90.90;102234.94;5037907;28;20051;-71
2022/09/22 07:31:15;;;;;;;13.18;8.50;;;;;;;10.78;90.33;102240.19;5036513;28;20017;-71
2022/09/22 07:33:42;;;;;;;12.48;8.00;;;;;;;10.90;89.62;102239.19;5031987;28;20018;-71
2022/09/22 07:36:12;;;;;;;16.15;8.30;;;;;;;10.93;89.93;102238.94;5032986;28;20036;-71
2022/09/22 07:38:40;;;;;;;28.65;9.20;;;;;;;11.17;89.19;102235.16;5036383;28;20017;-71
2022/09/22 07:41:10;;;;;;;15.63;7.75;;;;;;;11.32;88.04;102233.88;5039176;28;20029;-71
2022/09/22 07:43:37;;;;;;;16.58;7.55;;;;;;;11.49;87.60;102229.75;5041060;28;20017;-71
2022/09/22 07:46:03;;;;;;;18.75;8.73;;;;;;;11.84;86.19;102230.28;5034789;28;20036;-71
2022/09/22 07:48:35;;;;;;;21.95;9.10;;;;;;;11.87;86.15;102223.75;5027284;28;20018;-71
2022/09/22 07:51:07;;;;;;;21.50;8.10;;;;;;;12.03;85.48;102218.69;5036798;28;20017;-71
2022/09/22 07:53:33;;;;;;;;;;;;;;;12.16;83.96;102224.75;5037304;28;20024;-71
2022/09/22 07:56:08;;;;;;;16.85;8.32;;;;;;;12.30;83.64;102225.38;5036927;28;19912;-72
2022/09/22 07:58:34;;;;;;;18.92;7.88;;;;;;;12.48;83.95;102229.19;5038919;28;20021;-72
2022/09/22 08:01:07;;;;;;;15.95;7.10;;;;;;;12.49;83.87;102225.47;5030097;28;20045;-71
2022/09/22 08:03:36;;;;;;;18.67;7.90;;;;;;;12.76;84.13;102228.41;5023420;28;20025;-71
2022/09/22 08:06:08;;;;;;;23.75;7.88;;;;;;;12.71;83.96;102225.28;5040231;28;20029;-71
2022/09/22 08:08:38;;;;;;;17.90;7.82;;;;;;;12.82;82.73;102227.00;5032732;28;20025;-72
2022/09/22 08:11:12;;;;;;;24.05;7.15;;;;;;;13.05;81.35;102227.63;5037785;28;20021;-71
2022/09/22 08:13:43;;;;;;;14.80;7.47;;;;;;;13.26;80.80;102224.78;5034318;28;20029;-71
2022/09/22 08:16:10;;;;;;;20.20;6.30;;;;;;;13.15;80.89;102223.03;5037115;28;20037;-71
2022/09/22 08:18:38;;;;;;;19.20;7.10;;;;;;;13.39;80.02;102219.06;5033904;28;20058;-72
2022/09/22 08:21:04;;;;;;;13.73;7.05;;;;;;;13.57;80.26;102228.22;5033391;28;20035;-72
2022/09/22 08:23:30;;;;;;;23.40;7.40;;;;;;;13.59;79.29;102223.50;5036065;28;20094;-71
2022/09/22 08:26:01;;;;;;;14.23;5.90;;;;;;;13.75;79.02;102223.75;5037954;28;20470;-71
2022/09/22 08:28:26;;;;;;;18.42;6.78;;;;;;;13.97;78.35;102232.59;5028929;28;20096;-71
2022/09/22 08:30:52;;;;;;;17.63;6.35;;;;;;;14.34;77.95;102222.59;5030572;28;20109;-71
2022/09/22 08:33:17;;;;;;;26.33;6.45;;;;;;;14.18;77.08;102221.50;5032007;28;20100;-71
2022/09/22 08:35:57;;;;;;;21.95;6.15;;;;;;;14.36;76.70;102220.56;5038807;28;20025;-72
2022/09/22 08:38:24;;;;;;;20.92;6.30;;;;;;;14.55;75.51;102224.25;5037385;28;20044;-71
2022/09/22 08:41:20;;;;;;;18.13;5.85;;;;;;;14.55;75.79;102227.81;5031223;28;20108;-72
2022/09/22 08:43:54;;;;;;;15.77;5.85;;;;;;;14.78;74.98;102235.59;5036925;28;20025;-71
2022/09/22 08:46:29;;;;;;;18.50;5.88;;;;;;;14.79;73.41;102229.97;5039974;28;20062;-72
2022/09/22 08:51:54;;;;;;;14.50;5.57;;;;;;;15.25;71.34;102233.53;5036408;28;20020;-72
2022/09/22 08:54:25;;;;;;;13.82;5.15;;;;;;;15.40;69.75;102237.44;5036650;28;20021;-71
2022/09/22 08:57:23;;;;;;;16.85;4.80;;;;;;;15.51;69.62;102232.75;5030678;28;20025;-72
2022/09/22 09:00:04;;;;;;;11.40;5.18;;;;;;;15.62;69.38;102229.81;5033126;28;20093;-71
2022/09/22 09:02:37;;;;;;;19.80;5.03;;;;;;;15.78;68.08;102229.94;5031330;28;20021;-71
2022/09/22 09:05:05;;;;;;;10.75;4.75;;;;;;;16.07;65.44;102231.50;5031766;28;20041;-72
2022/09/22 09:07:55;;;;;;;17.88;4.43;;;;;;;16.37;66.18;102224.69;5028893;28;20052;-72
2022/09/22 09:10:46;;;;;;;19.38;5.10;;;;;;;16.34;65.28;102227.72;5026913;28;20512;-71
2022/09/22 09:13:40;;;;;;;18.38;5.63;;;;;;;16.46;65.77;102227.28;5037553;28;20094;-71
2022/09/22 09:16:19;;;;;;;12.10;4.53;;;;;;;16.50;64.76;102220.47;5030174;28;20032;-71
2022/09/22 09:19:12;;;;;;;11.43;3.53;;;;;;;16.44;65.02;102226.59;5032338;28;20037;-71
2022/09/22 09:21:40;;;;;;;;;;;;;;;16.83;63.36;102226.09;5021191;28;20044;-72
2022/09/22 09:24:19;;;;;;;13.98;3.60;;;;;;;16.87;62.18;102227.44;5032472;28;19912;-71
2022/09/22 09:26:45;;;;;;;16.38;3.90;;;;;;;17.06;59.33;102227.16;5035785;28;20086;-70
2022/09/22 09:29:20;;;;;;;31.60;3.58;;;;;;;16.96;59.66;102231.94;5035358;28;20021;-71
2022/09/22 09:31:52;;;;;;;14.35;2.67;;;;;;;16.70;57.50;102236.66;5037905;28;20051;-71
2022/09/22 09:34:20;;;;;;;20.67;3.17;;;;;;;16.61;60.15;102222.03;5035963;28;20033;-71
2022/09/22 09:36:54;;;;;;;19.65;4.13;;;;;;;16.98;59.13;102218.94;5026056;28;20039;-71
2022/09/22 09:39:24;;;;;;;12.65;2.50;;;;;;;17.02;56.86;102209.38;5035934;28;20057;-71
2022/09/22 09:41:51;;;;;;;20.90;3.22;;;;;;;16.90;58.14;102218.94;5033857;28;20020;-71
2022/09/22 09:44:26;;;;;;;16.30;3.67;;;;;;;17.40;56.45;102212.47;5026461;28;20029;-71
2022/09/22 09:46:55;;;;;;;9.23;2.75;;;;;;;17.33;57.07;102205.97;5034684;28;20025;-71
2022/09/22 09:49:22;;;;;;;12.45;2.80;;;;;;;17.55;56.84;102216.28;5036169;28;20017;-71
2022/09/22 09:51:55;;;;;;;11.75;3.10;;;;;;;17.53;55.88;102218.31;5035827;28;20027;-71
2022/09/22 09:54:21;;;;;;;12.88;2.58;;;;;;;17.63;56.99;102202.56;5032093;28;20071;-71
2022/09/22 09:57:05;;;;;;;11.70;2.22;;;;;;;17.77;55.11;102208.41;5037661;28;20024;-71
2022/09/22 10:02:20;;;;;;;10.13;3.22;;;;;;;17.84;55.19;102207.53;5036026;28;20010;-72
2022/09/22 10:04:55;;;;;;;11.02;3.42;;;;;;;18.28;55.63;102207.09;5033291;28;20039;-72
2022/09/22 10:07:29;;;;;;;15.38;2.90;;;;;;;18.21;54.14;102210.72;5021532;28;20017;-72
2022/09/22 10:10:30;;;;;;;16.25;3.10;;;;;;;18.04;55.81;102205.28;5034928;28;20031;-72
2022/09/22 10:12:59;;;;;;;26.63;2.83;;;;;;;18.66;53.41;102205.44;5034115;28;20021;-71
2022/09/22 10:15:25;;;;;;;8.95;2.40;;;;;;;18.55;53.93;102202.19;5037627;28;21170;-72
2022/09/22 10:17:51;;;;;;;9.63;2.33;;;;;;;18.96;53.17;102206.44;5035546;28;20025;-72
2022/09/22 10:20:31;;;;;;;16.90;2.58;;;;;;;17.89;52.97;102196.06;5032117;28;20029;-71
2022/09/22 10:23:32;;;;;;;7.38;2.17;;;;;;;18.12;53.43;102190.69;5029272;28;20013;-71
2022/09/22 10:26:17;;;;;;;13.43;2.38;;;;;;;18.01;54.82;102194.69;4974329;28;20082;-71
2022/09/22 10:28:46;;;;;;;16.33;2.22;;;;;;;18.31;54.24;102183.94;5026668;28;20205;-71
2022/09/22 10:31:20;;;;;;;13.65;2.22;;;;;;;18.72;50.62;102181.06;5031401;28;20025;-71
2022/09/22 10:33:55;;;;;;;7.50;2.53;;;;;;;18.82;51.66;102181.69;5031415;28;20017;-72
2022/09/22 10:36:24;;;;;;;11.05;2.00;;;;;;;18.23;52.74;102181.25;5030735;28;20029;-71
2022/09/22 10:38:51;;;;;;;10.43;2.00;;;;;;;18.64;50.91;102174.53;5035570;28;20049;-71
2022/09/22 10:41:22;;;;;;;7.68;2.30;;;;;;;19.13;51.11;102174.25;5034340;28;20017;-71
2022/09/22 10:43:55;;;;;;;12.82;2.55;;;;;;;19.24;50.79;102165.59;5039657;28;20028;-72
2022/09/22 10:46:25;;;;;;;11.30;2.05;;;;;;;19.09;48.00;102172.91;5037927;28;20021;-72
2022/09/22 10:49:16;;;;;;;7.45;1.90;;;;;;;19.06;48.66;102167.81;5030707;28;20036;-72
2022/09/22 10:51:56;;;;;;;6.28;1.42;;;;;;;19.24;48.27;102171.09;5036221;28;20072;-72
2022/09/22 10:54:53;;;;;;;8.40;2.00;;;;;;;19.43;47.96;102174.34;5041293;28;20037;-71
2022/09/22 10:57:49;;;;;;;12.15;1.63;;;;;;;19.24;46.50;102170.25;5027613;28;20020;-72
2022/09/22 11:00:20;;;;;;;6.95;1.23;;;;;;;19.23;46.52;102163.91;5036582;28;20013;-72
2022/09/22 11:03:10;;;;;;;10.75;1.98;;;;;;;19.14;42.97;102170.47;5038819;28;20021;-72
2022/09/22 11:14:09;;;;;;;5.57;1.50;;;;;;;20.10;45.82;102154.31;5042454;28;20025;-72
2022/09/22 11:16:52;;;;;;;2.90;1.20;;;;;;;20.31;45.15;102152.50;5035654;28;20087;-72
2022/09/22 11:19:42;;;;;;;6.32;1.95;;;;;;;20.02;44.82;102136.03;5037704;28;20018;-72
2022/09/22 11:22:29;;;;;;;8.38;1.90;;;;;;;18.68;46.71;102164.94;5029881;28;20025;-74
2022/09/22 11:25:20;;;;;;;8.45;1.85;;;;;;;19.40;47.72;102152.75;5033957;28;20037;-73
2022/09/22 11:28:10;;;;;;;11.68;1.75;;;;;;;19.79;44.75;102153.44;5038700;28;20017;-73
2022/09/22 11:30:48;;;;;;;7.35;1.58;;;;;;;20.42;43.01;102153.06;5032403;28;20052;-74
2022/09/22 11:33:25;;;;;;;8.25;1.65;;;;;;;19.28;45.24;102148.75;5030033;28;20017;-73
2022/09/22 11:36:05;;;;;;;4.25;1.40;;;;;;;20.15;46.10;102144.47;5026500;28;20025;-73
2022/09/22 11:38:57;;;;;;;6.13;1.40;;;;;;;20.72;42.09;102143.72;5029877;28;20478;-73
2022/09/22 11:41:44;;;;;;;10.35;1.73;;;;;;;20.07;42.56;102144.53;5034007;28;20013;-73
2022/09/22 11:44:18;;;;;;;7.50;1.40;;;;;;;20.03;42.93;102127.56;5033567;28;20374;-72
2022/09/22 11:47:01;;;;;;;5.90;1.60;;;;;;;20.27;43.14;102123.66;5041399;28;20020;-72
2022/09/22 11:49:53;;;;;;;10.98;1.65;;;;;;;20.59;43.65;102127.03;5027193;28;20017;-73
2022/09/22 11:52:44;;;;;;;11.52;1.90;;;;;;;20.78;43.22;102126.41;5030501;28;20024;-73
2022/09/22 11:55:31;;;;;;;4.78;1.63;;;;;;;20.45;41.79;102125.19;5037505;28;20502;-73
2022/09/22 11:58:00;;;;;;;7.85;1.65;;;;;;;20.65;42.41;102115.25;5039811;28;20389;-73